sensor_id;sensor_type;location;lat;lon;timestamp;P1;durP1;ratioP1;P2;durP2;ratioP2
77152;SDS011;66124;51.146;17.072;2023-05-01T00:00:27;16.00;;;9.00;;
77152;SDS011;66124;51.146;17.072;2023-05-01T00:03:13;14.30;;;8.00;;
77152;SDS011;66124;51.146;17.072;2023-05-01T00:05:43;14.70;;;8.40;;
77152;SDS011;66124;51.146;17.072;2023-05-01T00:08:12;14.70;;;8.40;;
77152;SDS011;66124;51.146;17.072;2023-05-01T00:10:42;14.70;;;8.70;;
77152;SDS011;66124;51.146;17.072;2023-05-01T00:13:11;18.10;;;10.90;;
77152;SDS011;66124;51.146;17.072;2023-05-01T00:15:41;15.50;;;9.30;;
77152;SDS011;66124;51.146;17.072;2023-05-01T00:18:10;17.90;;;10.10;;
77152;SDS011;66124;51.146;17.072;2023-05-01T00:20:39;17.30;;;10.40;;
77152;SDS011;66124;51.146;17.072;2023-05-01T00:23:09;17.60;;;9.60;;
77152;SDS011;66124;51.146;17.072;2023-05-01T00:25:38;16.10;;;9.40;;
77152;SDS011;66124;51.146;17.072;2023-05-01T00:28:08;14.80;;;8.40;;
77152;SDS011;66124;51.146;17.072;2023-05-01T00:30:37;19.40;;;10.20;;
77152;SDS011;66124;51.146;17.072;2023-05-01T00:33:07;14.50;;;9.30;;
77152;SDS011;66124;51.146;17.072;2023-05-01T00:35:36;17.10;;;9.00;;
77152;SDS011;66124;51.146;17.072;2023-05-01T00:38:05;13.10;;;8.20;;
77152;SDS011;66124;51.146;17.072;2023-05-01T00:40:41;16.30;;;8.40;;
77152;SDS011;66124;51.146;17.072;2023-05-01T00:43:11;14.20;;;8.60;;
77152;SDS011;66124;51.146;17.072;2023-05-01T00:45:42;15.10;;;7.60;;
77152;SDS011;66124;51.146;17.072;2023-05-01T00:54:56;14.50;;;8.60;;
77152;SDS011;66124;51.146;17.072;2023-05-01T00:57:26;12.60;;;7.70;;
77152;SDS011;66124;51.146;17.072;2023-05-01T00:59:55;13.30;;;8.50;;
77152;SDS011;66124;51.146;17.072;2023-05-01T01:02:25;15.30;;;8.10;;
77152;SDS011;66124;51.146;17.072;2023-05-01T01:04:54;14.80;;;8.10;;
77152;SDS011;66124;51.146;17.072;2023-05-01T01:07:26;14.80;;;7.60;;
77152;SDS011;66124;51.146;17.072;2023-05-01T01:10:02;11.80;;;8.10;;
77152;SDS011;66124;51.146;17.072;2023-05-01T01:12:43;17.40;;;8.40;;
77152;SDS011;66124;51.146;17.072;2023-05-01T01:15:20;14.20;;;7.70;;
77152;SDS011;66124;51.146;17.072;2023-05-01T01:17:56;13.60;;;8.20;;
77152;SDS011;66124;51.146;17.072;2023-05-01T01:20:36;11.50;;;7.50;;
77152;SDS011;66124;51.146;17.072;2023-05-01T01:23:19;12.10;;;7.60;;
77152;SDS011;66124;51.146;17.072;2023-05-01T01:29:03;10.80;;;7.20;;
77152;SDS011;66124;51.146;17.072;2023-05-01T01:32:02;13.20;;;8.00;;
77152;SDS011;66124;51.146;17.072;2023-05-01T01:34:54;12.40;;;7.10;;
77152;SDS011;66124;51.146;17.072;2023-05-01T01:37:31;13.20;;;8.10;;
77152;SDS011;66124;51.146;17.072;2023-05-01T01:40:09;14.70;;;8.30;;
77152;SDS011;66124;51.146;17.072;2023-05-01T01:42:43;17.60;;;9.10;;
77152;SDS011;66124;51.146;17.072;2023-05-01T01:45:29;15.70;;;9.30;;
77152;SDS011;66124;51.146;17.072;2023-05-01T01:48:04;18.00;;;8.60;;
77152;SDS011;66124;51.146;17.072;2023-05-01T01:50:36;16.00;;;9.20;;
77152;SDS011;66124;51.146;17.072;2023-05-01T01:53:07;14.00;;;8.50;;
77152;SDS011;66124;51.146;17.072;2023-05-01T01:55:39;16.50;;;8.80;;
77152;SDS011;66124;51.146;17.072;2023-05-01T01:58:11;16.70;;;8.70;;
77152;SDS011;66124;51.146;17.072;2023-05-01T02:00:42;17.70;;;9.20;;
77152;SDS011;66124;51.146;17.072;2023-05-01T02:03:12;16.50;;;7.70;;
77152;SDS011;66124;51.146;17.072;2023-05-01T02:05:43;10.60;;;5.60;;
77152;SDS011;66124;51.146;17.072;2023-05-01T02:14:52;16.70;;;9.00;;
77152;SDS011;66124;51.146;17.072;2023-05-01T02:17:23;17.30;;;9.00;;
77152;SDS011;66124;51.146;17.072;2023-05-01T02:19:53;16.50;;;9.80;;
77152;SDS011;66124;51.146;17.072;2023-05-01T02:22:24;16.70;;;8.70;;
77152;SDS011;66124;51.146;17.072;2023-05-01T02:24:55;15.70;;;9.30;;
77152;SDS011;66124;51.146;17.072;2023-05-01T02:27:28;15.90;;;9.40;;
77152;SDS011;66124;51.146;17.072;2023-05-01T02:30:01;16.70;;;9.60;;
77152;SDS011;66124;51.146;17.072;2023-05-01T02:32:31;20.50;;;9.90;;
77152;SDS011;66124;51.146;17.072;2023-05-01T02:35:00;14.80;;;9.20;;
77152;SDS011;66124;51.146;17.072;2023-05-01T02:37:30;14.90;;;9.60;;
77152;SDS011;66124;51.146;17.072;2023-05-01T02:40:00;16.70;;;9.20;;
77152;SDS011;66124;51.146;17.072;2023-05-01T02:42:32;15.50;;;9.30;;
77152;SDS011;66124;51.146;17.072;2023-05-01T02:45:03;13.20;;;8.60;;
77152;SDS011;66124;51.146;17.072;2023-05-01T02:47:36;15.40;;;9.00;;
77152;SDS011;66124;51.146;17.072;2023-05-01T02:50:09;16.30;;;8.90;;
77152;SDS011;66124;51.146;17.072;2023-05-01T02:52:40;14.20;;;8.40;;
77152;SDS011;66124;51.146;17.072;2023-05-01T02:55:11;16.60;;;8.40;;
77152;SDS011;66124;51.146;17.072;2023-05-01T02:57:41;16.90;;;8.50;;
77152;SDS011;66124;51.146;17.072;2023-05-01T03:00:11;12.80;;;8.10;;
77152;SDS011;66124;51.146;17.072;2023-05-01T03:02:41;15.50;;;8.60;;
77152;SDS011;66124;51.146;17.072;2023-05-01T03:05:11;15.90;;;7.50;;
77152;SDS011;66124;51.146;17.072;2023-05-01T03:07:40;14.10;;;8.90;;
77152;SDS011;66124;51.146;17.072;2023-05-01T03:10:10;19.10;;;9.60;;
77152;SDS011;66124;51.146;17.072;2023-05-01T03:12:40;15.80;;;8.90;;
77152;SDS011;66124;51.146;17.072;2023-05-01T03:15:10;16.60;;;8.80;;
77152;SDS011;66124;51.146;17.072;2023-05-01T03:17:39;14.30;;;7.20;;
77152;SDS011;66124;51.146;17.072;2023-05-01T03:20:09;13.10;;;7.80;;
77152;SDS011;66124;51.146;17.072;2023-05-01T03:22:39;16.20;;;8.10;;
77152;SDS011;66124;51.146;17.072;2023-05-01T03:35:14;16.00;;;9.00;;
77152;SDS011;66124;51.146;17.072;2023-05-01T03:37:44;17.10;;;9.70;;
77152;SDS011;66124;51.146;17.072;2023-05-01T03:40:14;16.00;;;9.20;;
77152;SDS011;66124;51.146;17.072;2023-05-01T03:42:44;14.80;;;8.60;;
77152;SDS011;66124;51.146;17.072;2023-05-01T03:45:13;14.60;;;8.70;;
77152;SDS011;66124;51.146;17.072;2023-05-01T03:47:43;16.60;;;9.20;;
77152;SDS011;66124;51.146;17.072;2023-05-01T03:50:12;18.30;;;9.40;;
77152;SDS011;66124;51.146;17.072;2023-05-01T03:52:41;16.20;;;9.50;;
77152;SDS011;66124;51.146;17.072;2023-05-01T03:55:11;16.10;;;8.90;;
77152;SDS011;66124;51.146;17.072;2023-05-01T03:57:40;20.20;;;9.50;;
77152;SDS011;66124;51.146;17.072;2023-05-01T04:00:11;16.50;;;9.30;;
77152;SDS011;66124;51.146;17.072;2023-05-01T04:02:41;17.50;;;9.70;;
77152;SDS011;66124;51.146;17.072;2023-05-01T04:05:11;13.60;;;8.60;;
77152;SDS011;66124;51.146;17.072;2023-05-01T04:07:40;14.80;;;8.00;;
77152;SDS011;66124;51.146;17.072;2023-05-01T04:10:10;19.00;;;9.20;;
77152;SDS011;66124;51.146;17.072;2023-05-01T04:12:39;14.20;;;8.40;;
77152;SDS011;66124;51.146;17.072;2023-05-01T04:15:10;16.00;;;8.70;;
77152;SDS011;66124;51.146;17.072;2023-05-01T04:17:39;17.40;;;8.60;;
77152;SDS011;66124;51.146;17.072;2023-05-01T04:20:10;16.50;;;9.50;;
77152;SDS011;66124;51.146;17.072;2023-05-01T04:22:40;16.20;;;9.40;;
77152;SDS011;66124;51.146;17.072;2023-05-01T04:25:10;16.30;;;10.10;;
77152;SDS011;66124;51.146;17.072;2023-05-01T04:27:39;17.00;;;9.80;;
77152;SDS011;66124;51.146;17.072;2023-05-01T04:30:09;14.30;;;8.60;;
77152;SDS011;66124;51.146;17.072;2023-05-01T04:32:39;14.50;;;8.90;;
77152;SDS011;66124;51.146;17.072;2023-05-01T04:35:08;14.50;;;8.90;;
77152;SDS011;66124;51.146;17.072;2023-05-01T04:37:38;16.10;;;8.90;;
77152;SDS011;66124;51.146;17.072;2023-05-01T04:40:09;21.50;;;10.20;;
77152;SDS011;66124;51.146;17.072;2023-05-01T04:42:39;14.60;;;9.20;;
77152;SDS011;66124;51.146;17.072;2023-05-01T04:45:09;16.20;;;9.70;;
77152;SDS011;66124;51.146;17.072;2023-05-01T05:00:43;17.60;;;9.30;;
77152;SDS011;66124;51.146;17.072;2023-05-01T05:03:12;15.40;;;8.50;;
77152;SDS011;66124;51.146;17.072;2023-05-01T05:05:42;13.50;;;8.30;;
77152;SDS011;66124;51.146;17.072;2023-05-01T05:08:11;13.60;;;8.10;;
77152;SDS011;66124;51.146;17.072;2023-05-01T05:10:40;14.70;;;8.10;;
77152;SDS011;66124;51.146;17.072;2023-05-01T05:13:10;12.30;;;8.10;;
77152;SDS011;66124;51.146;17.072;2023-05-01T05:15:39;14.90;;;8.60;;
77152;SDS011;66124;51.146;17.072;2023-05-01T05:18:09;12.40;;;8.50;;
77152;SDS011;66124;51.146;17.072;2023-05-01T05:20:39;15.10;;;9.20;;
77152;SDS011;66124;51.146;17.072;2023-05-01T05:23:08;11.90;;;8.10;;
77152;SDS011;66124;51.146;17.072;2023-05-01T05:25:37;14.30;;;8.40;;
77152;SDS011;66124;51.146;17.072;2023-05-01T05:28:07;11.60;;;7.60;;
77152;SDS011;66124;51.146;17.072;2023-05-01T05:30:36;15.10;;;8.10;;
77152;SDS011;66124;51.146;17.072;2023-05-01T05:33:06;11.50;;;7.40;;
77152;SDS011;66124;51.146;17.072;2023-05-01T05:35:36;10.20;;;6.70;;
77152;SDS011;66124;51.146;17.072;2023-05-01T05:38:05;10.50;;;6.60;;
77152;SDS011;66124;51.146;17.072;2023-05-01T05:40:35;11.80;;;5.80;;
77152;SDS011;66124;51.146;17.072;2023-05-01T05:43:04;13.10;;;7.00;;
77152;SDS011;66124;51.146;17.072;2023-05-01T05:45:34;11.60;;;6.60;;
77152;SDS011;66124;51.146;17.072;2023-05-01T05:48:04;13.30;;;6.70;;
77152;SDS011;66124;51.146;17.072;2023-05-01T05:50:33;10.90;;;6.20;;
77152;SDS011;66124;51.146;17.072;2023-05-01T05:53:03;11.50;;;6.30;;
77152;SDS011;66124;51.146;17.072;2023-05-01T05:55:32;10.00;;;6.40;;
77152;SDS011;66124;51.146;17.072;2023-05-01T05:58:02;9.80;;;6.80;;
77152;SDS011;66124;51.146;17.072;2023-05-01T06:00:31;11.60;;;5.90;;
77152;SDS011;66124;51.146;17.072;2023-05-01T06:03:01;11.50;;;6.60;;
77152;SDS011;66124;51.146;17.072;2023-05-01T06:05:30;11.90;;;5.90;;
77152;SDS011;66124;51.146;17.072;2023-05-01T06:07:59;10.10;;;5.60;;
77152;SDS011;66124;51.146;17.072;2023-05-01T06:12:57;8.40;;;5.40;;
77152;SDS011;66124;51.146;17.072;2023-05-01T06:20:21;10.30;;;5.40;;
77152;SDS011;66124;51.146;17.072;2023-05-01T06:22:50;11.50;;;5.80;;
77152;SDS011;66124;51.146;17.072;2023-05-01T06:25:20;8.50;;;5.20;;
77152;SDS011;66124;51.146;17.072;2023-05-01T06:27:49;12.40;;;5.60;;
77152;SDS011;66124;51.146;17.072;2023-05-01T06:30:19;10.20;;;4.90;;
77152;SDS011;66124;51.146;17.072;2023-05-01T06:32:49;9.50;;;5.10;;
77152;SDS011;66124;51.146;17.072;2023-05-01T06:35:19;9.80;;;4.90;;
77152;SDS011;66124;51.146;17.072;2023-05-01T06:37:48;9.00;;;4.60;;
77152;SDS011;66124;51.146;17.072;2023-05-01T06:40:18;9.40;;;4.80;;
77152;SDS011;66124;51.146;17.072;2023-05-01T06:42:47;9.40;;;5.00;;
77152;SDS011;66124;51.146;17.072;2023-05-01T06:45:17;8.10;;;4.60;;
77152;SDS011;66124;51.146;17.072;2023-05-01T06:47:46;8.60;;;5.50;;
77152;SDS011;66124;51.146;17.072;2023-05-01T06:50:15;8.40;;;5.20;;
77152;SDS011;66124;51.146;17.072;2023-05-01T06:52:45;10.20;;;5.10;;
77152;SDS011;66124;51.146;17.072;2023-05-01T06:55:14;8.20;;;4.80;;
77152;SDS011;66124;51.146;17.072;2023-05-01T06:57:44;9.20;;;5.10;;
77152;SDS011;66124;51.146;17.072;2023-05-01T07:00:14;8.10;;;4.90;;
77152;SDS011;66124;51.146;17.072;2023-05-01T07:02:45;9.50;;;4.60;;
77152;SDS011;66124;51.146;17.072;2023-05-01T07:05:14;6.90;;;4.80;;
77152;SDS011;66124;51.146;17.072;2023-05-01T07:07:44;9.10;;;4.50;;
77152;SDS011;66124;51.146;17.072;2023-05-01T07:10:13;9.20;;;5.00;;
77152;SDS011;66124;51.146;17.072;2023-05-01T07:12:43;10.90;;;4.70;;
77152;SDS011;66124;51.146;17.072;2023-05-01T07:15:12;8.60;;;4.70;;
77152;SDS011;66124;51.146;17.072;2023-05-01T07:17:42;7.30;;;4.10;;
77152;SDS011;66124;51.146;17.072;2023-05-01T07:20:12;8.30;;;4.10;;
77152;SDS011;66124;51.146;17.072;2023-05-01T07:22:41;6.80;;;4.10;;
77152;SDS011;66124;51.146;17.072;2023-05-01T07:25:10;9.90;;;4.50;;
77152;SDS011;66124;51.146;17.072;2023-05-01T07:27:40;5.60;;;3.20;;
77152;SDS011;66124;51.146;17.072;2023-05-01T07:30:10;6.50;;;3.40;;
77152;SDS011;66124;51.146;17.072;2023-05-01T07:32:40;5.50;;;3.00;;
77152;SDS011;66124;51.146;17.072;2023-05-01T07:42:43;6.30;;;3.40;;
77152;SDS011;66124;51.146;17.072;2023-05-01T07:45:12;8.20;;;4.00;;
77152;SDS011;66124;51.146;17.072;2023-05-01T07:47:42;7.50;;;4.10;;
77152;SDS011;66124;51.146;17.072;2023-05-01T07:50:11;5.50;;;3.40;;
77152;SDS011;66124;51.146;17.072;2023-05-01T07:52:41;5.40;;;3.30;;
77152;SDS011;66124;51.146;17.072;2023-05-01T07:55:12;5.60;;;2.60;;
77152;SDS011;66124;51.146;17.072;2023-05-01T07:57:41;5.00;;;3.10;;
77152;SDS011;66124;51.146;17.072;2023-05-01T08:00:12;5.70;;;2.90;;
77152;SDS011;66124;51.146;17.072;2023-05-01T08:05:10;4.80;;;2.10;;
77152;SDS011;66124;51.146;17.072;2023-05-01T08:07:39;3.70;;;2.20;;
77152;SDS011;66124;51.146;17.072;2023-05-01T08:10:09;5.20;;;2.90;;
77152;SDS011;66124;51.146;17.072;2023-05-01T08:12:38;7.20;;;3.00;;
77152;SDS011;66124;51.146;17.072;2023-05-01T08:15:08;6.90;;;2.40;;
77152;SDS011;66124;51.146;17.072;2023-05-01T08:17:38;4.50;;;2.10;;
77152;SDS011;66124;51.146;17.072;2023-05-01T08:20:08;3.80;;;2.60;;
77152;SDS011;66124;51.146;17.072;2023-05-01T08:22:39;4.60;;;1.90;;
77152;SDS011;66124;51.146;17.072;2023-05-01T08:25:08;3.70;;;2.10;;
77152;SDS011;66124;51.146;17.072;2023-05-01T08:27:38;5.40;;;2.60;;
77152;SDS011;66124;51.146;17.072;2023-05-01T08:30:08;7.30;;;3.10;;
77152;SDS011;66124;51.146;17.072;2023-05-01T08:32:38;4.80;;;2.50;;
77152;SDS011;66124;51.146;17.072;2023-05-01T08:35:08;4.50;;;2.60;;
77152;SDS011;66124;51.146;17.072;2023-05-01T08:37:37;4.20;;;2.40;;
77152;SDS011;66124;51.146;17.072;2023-05-01T08:40:08;5.80;;;3.20;;
77152;SDS011;66124;51.146;17.072;2023-05-01T08:42:38;6.20;;;2.60;;
77152;SDS011;66124;51.146;17.072;2023-05-01T08:45:08;6.40;;;2.70;;
77152;SDS011;66124;51.146;17.072;2023-05-01T08:47:39;5.80;;;2.80;;
77152;SDS011;66124;51.146;17.072;2023-05-01T08:50:09;5.40;;;2.80;;
77152;SDS011;66124;51.146;17.072;2023-05-01T08:52:40;5.00;;;2.80;;
77152;SDS011;66124;51.146;17.072;2023-05-01T09:00:13;5.10;;;2.80;;
77152;SDS011;66124;51.146;17.072;2023-05-01T09:02:44;3.80;;;2.30;;
77152;SDS011;66124;51.146;17.072;2023-05-01T09:05:16;4.80;;;2.60;;
77152;SDS011;66124;51.146;17.072;2023-05-01T09:07:46;5.80;;;2.90;;
77152;SDS011;66124;51.146;17.072;2023-05-01T09:10:16;6.80;;;3.10;;
77152;SDS011;66124;51.146;17.072;2023-05-01T09:12:48;5.30;;;3.00;;
77152;SDS011;66124;51.146;17.072;2023-05-01T09:15:22;5.80;;;3.40;;
77152;SDS011;66124;51.146;17.072;2023-05-01T09:17:52;7.30;;;3.00;;
77152;SDS011;66124;51.146;17.072;2023-05-01T09:20:22;6.30;;;2.90;;
77152;SDS011;66124;51.146;17.072;2023-05-01T09:22:52;7.30;;;3.00;;
77152;SDS011;66124;51.146;17.072;2023-05-01T09:25:21;6.00;;;3.10;;
77152;SDS011;66124;51.146;17.072;2023-05-01T09:27:51;6.20;;;2.50;;
77152;SDS011;66124;51.146;17.072;2023-05-01T09:30:31;5.70;;;2.80;;
77152;SDS011;66124;51.146;17.072;2023-05-01T09:33:05;4.60;;;2.60;;
77152;SDS011;66124;51.146;17.072;2023-05-01T09:35:48;5.00;;;2.20;;
77152;SDS011;66124;51.146;17.072;2023-05-01T09:38:20;4.90;;;2.40;;
77152;SDS011;66124;51.146;17.072;2023-05-01T09:40:51;4.30;;;2.60;;
77152;SDS011;66124;51.146;17.072;2023-05-01T09:43:25;5.40;;;2.30;;
77152;SDS011;66124;51.146;17.072;2023-05-01T09:46:05;5.00;;;2.30;;
77152;SDS011;66124;51.146;17.072;2023-05-01T09:48:35;4.90;;;2.50;;
77152;SDS011;66124;51.146;17.072;2023-05-01T09:53:50;4.20;;;2.20;;
77152;SDS011;66124;51.146;17.072;2023-05-01T09:56:19;4.50;;;2.40;;
77152;SDS011;66124;51.146;17.072;2023-05-01T09:58:50;4.00;;;2.40;;
77152;SDS011;66124;51.146;17.072;2023-05-01T10:01:27;4.80;;;2.80;;
77152;SDS011;66124;51.146;17.072;2023-05-01T10:04:05;4.30;;;2.30;;
77152;SDS011;66124;51.146;17.072;2023-05-01T10:06:35;6.30;;;2.20;;
77152;SDS011;66124;51.146;17.072;2023-05-01T10:09:06;4.90;;;2.50;;
77152;SDS011;66124;51.146;17.072;2023-05-01T10:21:52;4.40;;;2.30;;
77152;SDS011;66124;51.146;17.072;2023-05-01T10:24:22;4.20;;;2.20;;
77152;SDS011;66124;51.146;17.072;2023-05-01T10:26:52;4.40;;;2.00;;
77152;SDS011;66124;51.146;17.072;2023-05-01T10:29:22;4.30;;;2.20;;
77152;SDS011;66124;51.146;17.072;2023-05-01T10:31:54;4.10;;;1.80;;
77152;SDS011;66124;51.146;17.072;2023-05-01T10:34:23;4.40;;;1.80;;
77152;SDS011;66124;51.146;17.072;2023-05-01T10:36:54;4.20;;;2.30;;
77152;SDS011;66124;51.146;17.072;2023-05-01T10:39:32;4.10;;;1.80;;
77152;SDS011;66124;51.146;17.072;2023-05-01T10:42:03;4.30;;;2.50;;
77152;SDS011;66124;51.146;17.072;2023-05-01T10:44:34;4.40;;;2.00;;
77152;SDS011;66124;51.146;17.072;2023-05-01T10:50:04;3.60;;;2.00;;
77152;SDS011;66124;51.146;17.072;2023-05-01T10:55:46;4.50;;;2.00;;
77152;SDS011;66124;51.146;17.072;2023-05-01T11:01:29;2.60;;;1.70;;
77152;SDS011;66124;51.146;17.072;2023-05-01T11:04:00;5.10;;;1.60;;
77152;SDS011;66124;51.146;17.072;2023-05-01T11:06:31;5.20;;;2.00;;
77152;SDS011;66124;51.146;17.072;2023-05-01T11:09:01;3.50;;;1.70;;
77152;SDS011;66124;51.146;17.072;2023-05-01T11:12:08;2.60;;;1.60;;
77152;SDS011;66124;51.146;17.072;2023-05-01T11:17:46;4.00;;;2.00;;
77152;SDS011;66124;51.146;17.072;2023-05-01T11:23:19;3.40;;;1.80;;
77152;SDS011;66124;51.146;17.072;2023-05-01T11:25:49;2.60;;;2.00;;
77152;SDS011;66124;51.146;17.072;2023-05-01T11:28:30;2.90;;;2.00;;
77152;SDS011;66124;51.146;17.072;2023-05-01T11:31:00;2.50;;;1.90;;
77152;SDS011;66124;51.146;17.072;2023-05-01T11:41:08;2.90;;;2.10;;
77152;SDS011;66124;51.146;17.072;2023-05-01T11:43:49;3.50;;;2.30;;
77152;SDS011;66124;51.146;17.072;2023-05-01T11:46:25;3.80;;;2.10;;
77152;SDS011;66124;51.146;17.072;2023-05-01T11:48:55;5.50;;;2.30;;
77152;SDS011;66124;51.146;17.072;2023-05-01T11:51:27;2.80;;;1.90;;
77152;SDS011;66124;51.146;17.072;2023-05-01T11:54:00;3.30;;;2.40;;
77152;SDS011;66124;51.146;17.072;2023-05-01T11:56:31;3.60;;;2.30;;
77152;SDS011;66124;51.146;17.072;2023-05-01T11:59:09;4.10;;;2.30;;
77152;SDS011;66124;51.146;17.072;2023-05-01T12:01:40;2.60;;;2.00;;
77152;SDS011;66124;51.146;17.072;2023-05-01T12:04:10;4.30;;;2.20;;
77152;SDS011;66124;51.146;17.072;2023-05-01T12:06:49;3.90;;;2.30;;
77152;SDS011;66124;51.146;17.072;2023-05-01T12:09:19;3.80;;;2.10;;
77152;SDS011;66124;51.146;17.072;2023-05-01T12:11:50;3.90;;;2.30;;
77152;SDS011;66124;51.146;17.072;2023-05-01T12:14:20;2.90;;;2.20;;
77152;SDS011;66124;51.146;17.072;2023-05-01T12:16:49;4.50;;;2.40;;
77152;SDS011;66124;51.146;17.072;2023-05-01T12:19:19;2.60;;;1.90;;
77152;SDS011;66124;51.146;17.072;2023-05-01T12:21:48;3.70;;;2.00;;
77152;SDS011;66124;51.146;17.072;2023-05-01T12:24:31;3.80;;;2.00;;
77152;SDS011;66124;51.146;17.072;2023-05-01T12:27:00;3.60;;;1.80;;
77152;SDS011;66124;51.146;17.072;2023-05-01T12:29:39;2.60;;;2.20;;
77152;SDS011;66124;51.146;17.072;2023-05-01T12:32:09;2.30;;;1.80;;
77152;SDS011;66124;51.146;17.072;2023-05-01T12:34:38;4.00;;;2.50;;
77152;SDS011;66124;51.146;17.072;2023-05-01T12:37:08;3.80;;;2.20;;
77152;SDS011;66124;51.146;17.072;2023-05-01T12:39:38;3.20;;;2.00;;
77152;SDS011;66124;51.146;17.072;2023-05-01T12:42:12;2.90;;;1.90;;
77152;SDS011;66124;51.146;17.072;2023-05-01T12:44:43;3.90;;;2.40;;
77152;SDS011;66124;51.146;17.072;2023-05-01T12:47:12;4.50;;;2.60;;
77152;SDS011;66124;51.146;17.072;2023-05-01T12:49:42;3.00;;;2.40;;
77152;SDS011;66124;51.146;17.072;2023-05-01T12:52:11;3.10;;;2.60;;
77152;SDS011;66124;51.146;17.072;2023-05-01T13:00:11;3.40;;;2.40;;
77152;SDS011;66124;51.146;17.072;2023-05-01T13:02:42;4.20;;;2.40;;
77152;SDS011;66124;51.146;17.072;2023-05-01T13:05:11;4.30;;;2.70;;
77152;SDS011;66124;51.146;17.072;2023-05-01T13:07:45;3.70;;;2.50;;
77152;SDS011;66124;51.146;17.072;2023-05-01T13:10:16;2.70;;;2.30;;
77152;SDS011;66124;51.146;17.072;2023-05-01T13:12:57;3.70;;;2.30;;
77152;SDS011;66124;51.146;17.072;2023-05-01T13:15:27;4.40;;;2.50;;
77152;SDS011;66124;51.146;17.072;2023-05-01T13:18:03;3.90;;;2.20;;
77152;SDS011;66124;51.146;17.072;2023-05-01T13:20:33;4.20;;;2.50;;
77152;SDS011;66124;51.146;17.072;2023-05-01T13:23:09;3.80;;;2.50;;
77152;SDS011;66124;51.146;17.072;2023-05-01T13:25:39;4.50;;;2.70;;
77152;SDS011;66124;51.146;17.072;2023-05-01T13:28:08;5.30;;;4.30;;
77152;SDS011;66124;51.146;17.072;2023-05-01T13:30:43;4.40;;;2.60;;
77152;SDS011;66124;51.146;17.072;2023-05-01T13:33:13;4.00;;;2.70;;
77152;SDS011;66124;51.146;17.072;2023-05-01T13:35:42;3.70;;;2.60;;
77152;SDS011;66124;51.146;17.072;2023-05-01T13:38:12;4.40;;;2.50;;
77152;SDS011;66124;51.146;17.072;2023-05-01T13:40:42;3.40;;;2.70;;
77152;SDS011;66124;51.146;17.072;2023-05-01T13:43:13;3.80;;;3.30;;
77152;SDS011;66124;51.146;17.072;2023-05-01T13:48:10;5.10;;;3.10;;
77152;SDS011;66124;51.146;17.072;2023-05-01T13:50:42;4.50;;;3.20;;
77152;SDS011;66124;51.146;17.072;2023-05-01T13:53:11;3.40;;;2.80;;
77152;SDS011;66124;51.146;17.072;2023-05-01T13:55:41;4.70;;;2.80;;
77152;SDS011;66124;51.146;17.072;2023-05-01T13:58:10;6.90;;;2.90;;
77152;SDS011;66124;51.146;17.072;2023-05-01T14:00:39;4.30;;;2.60;;
77152;SDS011;66124;51.146;17.072;2023-05-01T14:03:10;2.60;;;2.40;;
77152;SDS011;66124;51.146;17.072;2023-05-01T14:05:42;4.90;;;2.80;;
77152;SDS011;66124;51.146;17.072;2023-05-01T14:08:11;4.80;;;3.10;;
77152;SDS011;66124;51.146;17.072;2023-05-01T14:20:29;3.30;;;2.30;;
77152;SDS011;66124;51.146;17.072;2023-05-01T14:22:58;4.00;;;2.40;;
77152;SDS011;66124;51.146;17.072;2023-05-01T14:25:28;5.20;;;2.70;;
77152;SDS011;66124;51.146;17.072;2023-05-01T14:28:00;3.80;;;2.40;;
77152;SDS011;66124;51.146;17.072;2023-05-01T14:30:32;3.60;;;2.40;;
77152;SDS011;66124;51.146;17.072;2023-05-01T14:33:02;2.60;;;2.00;;
77152;SDS011;66124;51.146;17.072;2023-05-01T14:35:33;3.80;;;2.00;;
77152;SDS011;66124;51.146;17.072;2023-05-01T14:38:06;5.00;;;2.20;;
77152;SDS011;66124;51.146;17.072;2023-05-01T14:40:36;3.10;;;2.60;;
77152;SDS011;66124;51.146;17.072;2023-05-01T14:43:08;3.60;;;2.50;;
77152;SDS011;66124;51.146;17.072;2023-05-01T14:45:40;3.50;;;2.10;;
77152;SDS011;66124;51.146;17.072;2023-05-01T14:48:12;4.60;;;2.30;;
77152;SDS011;66124;51.146;17.072;2023-05-01T14:50:49;3.80;;;2.50;;
77152;SDS011;66124;51.146;17.072;2023-05-01T14:53:19;2.30;;;1.90;;
77152;SDS011;66124;51.146;17.072;2023-05-01T14:55:49;3.00;;;1.90;;
77152;SDS011;66124;51.146;17.072;2023-05-01T14:58:19;3.70;;;2.10;;
77152;SDS011;66124;51.146;17.072;2023-05-01T15:00:48;3.40;;;2.40;;
77152;SDS011;66124;51.146;17.072;2023-05-01T15:03:18;2.80;;;1.80;;
77152;SDS011;66124;51.146;17.072;2023-05-01T15:05:47;3.40;;;2.10;;
77152;SDS011;66124;51.146;17.072;2023-05-01T15:08:17;3.50;;;2.00;;
77152;SDS011;66124;51.146;17.072;2023-05-01T15:10:46;3.50;;;2.10;;
77152;SDS011;66124;51.146;17.072;2023-05-01T15:13:15;2.70;;;1.80;;
77152;SDS011;66124;51.146;17.072;2023-05-01T15:15:45;2.80;;;1.90;;
77152;SDS011;66124;51.146;17.072;2023-05-01T15:18:14;2.00;;;1.80;;
77152;SDS011;66124;51.146;17.072;2023-05-01T15:20:43;2.50;;;1.90;;
77152;SDS011;66124;51.146;17.072;2023-05-01T15:23:13;3.00;;;1.70;;
77152;SDS011;66124;51.146;17.072;2023-05-01T15:25:42;3.80;;;1.80;;
77152;SDS011;66124;51.146;17.072;2023-05-01T15:28:12;3.70;;;2.20;;
77152;SDS011;66124;51.146;17.072;2023-05-01T15:40:02;3.60;;;1.70;;
77152;SDS011;66124;51.146;17.072;2023-05-01T15:42:33;2.10;;;1.40;;
77152;SDS011;66124;51.146;17.072;2023-05-01T15:45:03;2.60;;;2.00;;
77152;SDS011;66124;51.146;17.072;2023-05-01T15:50:01;2.10;;;1.90;;
77152;SDS011;66124;51.146;17.072;2023-05-01T15:52:31;2.90;;;1.90;;
77152;SDS011;66124;51.146;17.072;2023-05-01T15:55:00;2.20;;;1.60;;
77152;SDS011;66124;51.146;17.072;2023-05-01T15:57:30;2.50;;;1.70;;
77152;SDS011;66124;51.146;17.072;2023-05-01T15:59:59;2.60;;;1.70;;
77152;SDS011;66124;51.146;17.072;2023-05-01T16:02:31;2.10;;;1.60;;
77152;SDS011;66124;51.146;17.072;2023-05-01T16:05:00;2.70;;;1.60;;
77152;SDS011;66124;51.146;17.072;2023-05-01T16:07:29;2.00;;;1.40;;
77152;SDS011;66124;51.146;17.072;2023-05-01T16:10:00;2.80;;;2.30;;
77152;SDS011;66124;51.146;17.072;2023-05-01T16:12:29;2.70;;;2.00;;
77152;SDS011;66124;51.146;17.072;2023-05-01T16:15:01;2.00;;;1.80;;
77152;SDS011;66124;51.146;17.072;2023-05-01T16:17:31;2.80;;;1.80;;
77152;SDS011;66124;51.146;17.072;2023-05-01T16:20:08;3.10;;;2.00;;
77152;SDS011;66124;51.146;17.072;2023-05-01T16:22:39;2.20;;;1.60;;
77152;SDS011;66124;51.146;17.072;2023-05-01T16:25:09;2.10;;;1.70;;
77152;SDS011;66124;51.146;17.072;2023-05-01T16:27:40;2.70;;;2.10;;
77152;SDS011;66124;51.146;17.072;2023-05-01T16:30:11;2.20;;;1.70;;
77152;SDS011;66124;51.146;17.072;2023-05-01T16:32:41;3.40;;;2.10;;
77152;SDS011;66124;51.146;17.072;2023-05-01T16:35:11;2.80;;;1.90;;
77152;SDS011;66124;51.146;17.072;2023-05-01T16:37:44;2.30;;;1.90;;
77152;SDS011;66124;51.146;17.072;2023-05-01T16:40:16;2.80;;;2.40;;
77152;SDS011;66124;51.146;17.072;2023-05-01T16:42:49;2.70;;;1.90;;
77152;SDS011;66124;51.146;17.072;2023-05-01T16:45:19;2.80;;;2.20;;
77152;SDS011;66124;51.146;17.072;2023-05-01T16:47:49;1.70;;;1.50;;
77152;SDS011;66124;51.146;17.072;2023-05-01T17:00:32;4.40;;;1.90;;
77152;SDS011;66124;51.146;17.072;2023-05-01T17:03:01;3.20;;;2.10;;
77152;SDS011;66124;51.146;17.072;2023-05-01T17:05:31;3.30;;;2.20;;
77152;SDS011;66124;51.146;17.072;2023-05-01T17:08:00;2.80;;;2.20;;